sensor_id;sensor_type;location;lat;lon;timestamp;P1;durP1;ratioP1;P2;durP2;ratioP2
29370;SDS011;16357;52.188;7.838;2023-02-28T00:01:06;11.73;;;6.43;;
29370;SDS011;16357;52.188;7.838;2023-02-28T00:03:32;11.60;;;6.00;;
29370;SDS011;16357;52.188;7.838;2023-02-28T00:06:04;12.25;;;5.32;;
29370;SDS011;16357;52.188;7.838;2023-02-28T00:08:32;8.68;;;4.97;;
29370;SDS011;16357;52.188;7.838;2023-02-28T00:11:03;7.47;;;5.03;;
29370;SDS011;16357;52.188;7.838;2023-02-28T00:13:31;8.70;;;5.78;;
29370;SDS011;16357;52.188;7.838;2023-02-28T00:16:04;12.27;;;6.05;;
29370;SDS011;16357;52.188;7.838;2023-02-28T00:18:32;9.20;;;4.72;;
29370;SDS011;16357;52.188;7.838;2023-02-28T00:20:59;7.65;;;4.28;;
29370;SDS011;16357;52.188;7.838;2023-02-28T00:23:26;9.70;;;4.85;;
29370;SDS011;16357;52.188;7.838;2023-02-28T00:25:53;7.90;;;4.82;;
29370;SDS011;16357;52.188;7.838;2023-02-28T00:28:20;8.20;;;5.07;;
29370;SDS011;16357;52.188;7.838;2023-02-28T00:30:46;6.45;;;4.55;;
29370;SDS011;16357;52.188;7.838;2023-02-28T00:33:13;6.60;;;4.15;;
29370;SDS011;16357;52.188;7.838;2023-02-28T00:35:40;7.10;;;4.25;;
29370;SDS011;16357;52.188;7.838;2023-02-28T00:38:06;9.70;;;5.05;;
29370;SDS011;16357;52.188;7.838;2023-02-28T00:40:33;12.55;;;5.40;;
29370;SDS011;16357;52.188;7.838;2023-02-28T00:42:59;7.32;;;4.65;;
29370;SDS011;16357;52.188;7.838;2023-02-28T00:45:25;11.05;;;4.47;;
29370;SDS011;16357;52.188;7.838;2023-02-28T00:47:52;6.15;;;4.13;;
29370;SDS011;16357;52.188;7.838;2023-02-28T00:50:19;9.65;;;4.47;;
29370;SDS011;16357;52.188;7.838;2023-02-28T00:52:46;7.95;;;4.35;;
29370;SDS011;16357;52.188;7.838;2023-02-28T00:55:13;7.35;;;4.65;;
29370;SDS011;16357;52.188;7.838;2023-02-28T00:57:40;8.07;;;4.40;;
29370;SDS011;16357;52.188;7.838;2023-02-28T01:00:08;9.10;;;4.88;;
29370;SDS011;16357;52.188;7.838;2023-02-28T01:02:35;9.18;;;4.13;;
29370;SDS011;16357;52.188;7.838;2023-02-28T01:05:02;8.65;;;4.75;;
29370;SDS011;16357;52.188;7.838;2023-02-28T01:07:29;7.78;;;4.05;;
29370;SDS011;16357;52.188;7.838;2023-02-28T01:09:55;10.30;;;4.35;;
29370;SDS011;16357;52.188;7.838;2023-02-28T01:12:22;8.43;;;4.57;;
29370;SDS011;16357;52.188;7.838;2023-02-28T01:14:48;7.25;;;3.75;;
29370;SDS011;16357;52.188;7.838;2023-02-28T01:17:14;6.20;;;3.92;;
29370;SDS011;16357;52.188;7.838;2023-02-28T01:19:42;6.65;;;3.80;;
29370;SDS011;16357;52.188;7.838;2023-02-28T01:22:08;6.07;;;3.67;;
29370;SDS011;16357;52.188;7.838;2023-02-28T01:24:35;5.70;;;4.00;;
29370;SDS011;16357;52.188;7.838;2023-02-28T01:27:01;6.53;;;3.67;;
29370;SDS011;16357;52.188;7.838;2023-02-28T01:29:28;6.43;;;3.83;;
29370;SDS011;16357;52.188;7.838;2023-02-28T01:31:54;5.65;;;3.65;;
29370;SDS011;16357;52.188;7.838;2023-02-28T01:34:21;8.50;;;3.72;;
29370;SDS011;16357;52.188;7.838;2023-02-28T01:36:47;7.13;;;4.00;;
29370;SDS011;16357;52.188;7.838;2023-02-28T01:39:14;8.30;;;4.30;;
29370;SDS011;16357;52.188;7.838;2023-02-28T01:41:40;7.43;;;3.47;;
29370;SDS011;16357;52.188;7.838;2023-02-28T01:44:54;7.75;;;3.90;;
29370;SDS011;16357;52.188;7.838;2023-02-28T01:47:11;7.03;;;3.67;;
29370;SDS011;16357;52.188;7.838;2023-02-28T01:49:38;5.43;;;3.50;;
29370;SDS011;16357;52.188;7.838;2023-02-28T01:52:05;7.35;;;3.67;;
29370;SDS011;16357;52.188;7.838;2023-02-28T01:54:33;6.13;;;3.72;;
29370;SDS011;16357;52.188;7.838;2023-02-28T01:57:01;9.20;;;3.63;;
29370;SDS011;16357;52.188;7.838;2023-02-28T02:02:04;8.90;;;3.55;;
29370;SDS011;16357;52.188;7.838;2023-02-28T02:04:36;6.72;;;3.72;;
29370;SDS011;16357;52.188;7.838;2023-02-28T02:07:06;7.88;;;3.15;;
29370;SDS011;16357;52.188;7.838;2023-02-28T02:09:33;6.65;;;3.28;;
29370;SDS011;16357;52.188;7.838;2023-02-28T02:11:59;7.50;;;3.08;;
29370;SDS011;16357;52.188;7.838;2023-02-28T02:14:43;6.10;;;2.97;;
29370;SDS011;16357;52.188;7.838;2023-02-28T02:17:28;6.90;;;3.80;;
29370;SDS011;16357;52.188;7.838;2023-02-28T02:25:29;6.38;;;3.03;;
29370;SDS011;16357;52.188;7.838;2023-02-28T02:28:03;5.55;;;3.55;;
29370;SDS011;16357;52.188;7.838;2023-02-28T02:30:46;6.65;;;3.67;;
29370;SDS011;16357;52.188;7.838;2023-02-28T02:33:32;6.53;;;3.33;;
29370;SDS011;16357;52.188;7.838;2023-02-28T02:36:58;6.10;;;3.40;;
29370;SDS011;16357;52.188;7.838;2023-02-28T02:39:31;5.40;;;3.38;;
29370;SDS011;16357;52.188;7.838;2023-02-28T02:42:25;8.43;;;3.70;;
29370;SDS011;16357;52.188;7.838;2023-02-28T02:44:57;5.15;;;3.13;;
29370;SDS011;16357;52.188;7.838;2023-02-28T02:47:27;4.95;;;3.15;;
29370;SDS011;16357;52.188;7.838;2023-02-28T02:49:57;5.90;;;3.83;;
29370;SDS011;16357;52.188;7.838;2023-02-28T02:52:31;6.30;;;3.70;;
29370;SDS011;16357;52.188;7.838;2023-02-28T02:57:32;6.75;;;4.03;;
29370;SDS011;16357;52.188;7.838;2023-02-28T03:00:03;9.18;;;3.83;;
29370;SDS011;16357;52.188;7.838;2023-02-28T03:02:34;7.85;;;3.55;;
29370;SDS011;16357;52.188;7.838;2023-02-28T03:05:08;7.80;;;4.22;;
29370;SDS011;16357;52.188;7.838;2023-02-28T03:07:43;8.68;;;4.90;;
29370;SDS011;16357;52.188;7.838;2023-02-28T03:10:26;8.40;;;4.50;;
29370;SDS011;16357;52.188;7.838;2023-02-28T03:13:00;8.15;;;4.78;;
29370;SDS011;16357;52.188;7.838;2023-02-28T03:15:44;6.95;;;4.50;;
29370;SDS011;16357;52.188;7.838;2023-02-28T03:18:24;7.70;;;4.78;;
29370;SDS011;16357;52.188;7.838;2023-02-28T03:21:19;8.27;;;4.72;;
29370;SDS011;16357;52.188;7.838;2023-02-28T03:24:00;9.00;;;5.35;;
29370;SDS011;16357;52.188;7.838;2023-02-28T03:26:36;8.10;;;4.85;;
29370;SDS011;16357;52.188;7.838;2023-02-28T03:35:07;7.85;;;4.70;;
29370;SDS011;16357;52.188;7.838;2023-02-28T03:37:38;9.10;;;5.00;;
29370;SDS011;16357;52.188;7.838;2023-02-28T03:40:09;10.25;;;4.65;;
29370;SDS011;16357;52.188;7.838;2023-02-28T03:42:39;7.68;;;4.93;;
29370;SDS011;16357;52.188;7.838;2023-02-28T03:45:10;10.27;;;5.13;;
29370;SDS011;16357;52.188;7.838;2023-02-28T03:47:44;9.95;;;5.57;;
29370;SDS011;16357;52.188;7.838;2023-02-28T03:52:57;10.52;;;5.65;;
29370;SDS011;16357;52.188;7.838;2023-02-28T03:55:32;11.68;;;6.00;;
29370;SDS011;16357;52.188;7.838;2023-02-28T04:00:54;7.53;;;4.13;;
29370;SDS011;16357;52.188;7.838;2023-02-28T04:03:25;7.07;;;4.78;;
29370;SDS011;16357;52.188;7.838;2023-02-28T04:05:52;8.07;;;4.95;;
29370;SDS011;16357;52.188;7.838;2023-02-28T04:08:21;9.23;;;4.90;;
29370;SDS011;16357;52.188;7.838;2023-02-28T04:10:51;8.35;;;4.65;;
29370;SDS011;16357;52.188;7.838;2023-02-28T04:13:22;8.30;;;4.60;;
29370;SDS011;16357;52.188;7.838;2023-02-28T04:15:48;9.07;;;4.72;;
29370;SDS011;16357;52.188;7.838;2023-02-28T04:18:15;9.25;;;5.05;;
29370;SDS011;16357;52.188;7.838;2023-02-28T04:20:41;11.55;;;4.95;;
29370;SDS011;16357;52.188;7.838;2023-02-28T04:23:08;9.20;;;4.72;;
29370;SDS011;16357;52.188;7.838;2023-02-28T04:25:34;8.25;;;4.40;;
29370;SDS011;16357;52.188;7.838;2023-02-28T04:28:00;8.77;;;4.38;;
29370;SDS011;16357;52.188;7.838;2023-02-28T04:30:27;7.65;;;4.70;;
29370;SDS011;16357;52.188;7.838;2023-02-28T04:32:53;7.72;;;4.55;;
29370;SDS011;16357;52.188;7.838;2023-02-28T04:35:20;5.22;;;3.60;;
29370;SDS011;16357;52.188;7.838;2023-02-28T04:37:46;6.63;;;3.97;;
29370;SDS011;16357;52.188;7.838;2023-02-28T04:40:12;6.15;;;3.85;;
29370;SDS011;16357;52.188;7.838;2023-02-28T04:42:39;6.22;;;4.05;;
29370;SDS011;16357;52.188;7.838;2023-02-28T04:45:06;7.13;;;4.22;;
29370;SDS011;16357;52.188;7.838;2023-02-28T04:47:33;7.50;;;3.75;;
29370;SDS011;16357;52.188;7.838;2023-02-28T04:49:59;7.47;;;3.92;;
29370;SDS011;16357;52.188;7.838;2023-02-28T04:52:27;5.28;;;3.65;;
29370;SDS011;16357;52.188;7.838;2023-02-28T04:54:53;8.55;;;3.72;;
29370;SDS011;16357;52.188;7.838;2023-02-28T04:57:20;6.03;;;3.53;;
29370;SDS011;16357;52.188;7.838;2023-02-28T04:59:46;5.80;;;3.35;;
29370;SDS011;16357;52.188;7.838;2023-02-28T05:02:13;8.23;;;3.60;;
29370;SDS011;16357;52.188;7.838;2023-02-28T05:04:39;5.35;;;3.08;;
29370;SDS011;16357;52.188;7.838;2023-02-28T05:07:06;5.93;;;3.50;;
29370;SDS011;16357;52.188;7.838;2023-02-28T05:09:32;5.03;;;3.10;;
29370;SDS011;16357;52.188;7.838;2023-02-28T05:11:59;5.03;;;3.30;;
29370;SDS011;16357;52.188;7.838;2023-02-28T05:14:25;5.28;;;3.28;;
29370;SDS011;16357;52.188;7.838;2023-02-28T05:16:52;4.32;;;2.88;;
29370;SDS011;16357;52.188;7.838;2023-02-28T05:19:18;3.25;;;2.45;;
29370;SDS011;16357;52.188;7.838;2023-02-28T05:21:51;4.13;;;2.65;;
29370;SDS011;16357;52.188;7.838;2023-02-28T05:24:19;4.85;;;2.72;;
29370;SDS011;16357;52.188;7.838;2023-02-28T05:26:49;5.40;;;3.03;;
29370;SDS011;16357;52.188;7.838;2023-02-28T05:29:18;5.28;;;2.83;;
29370;SDS011;16357;52.188;7.838;2023-02-28T05:31:45;5.25;;;3.10;;
29370;SDS011;16357;52.188;7.838;2023-02-28T05:34:11;5.10;;;2.90;;
29370;SDS011;16357;52.188;7.838;2023-02-28T05:36:38;6.03;;;3.30;;
29370;SDS011;16357;52.188;7.838;2023-02-28T05:39:05;4.15;;;2.58;;
29370;SDS011;16357;52.188;7.838;2023-02-28T05:41:33;3.17;;;2.50;;
29370;SDS011;16357;52.188;7.838;2023-02-28T05:43:59;3.95;;;2.60;;
29370;SDS011;16357;52.188;7.838;2023-02-28T05:46:26;5.03;;;2.88;;
29370;SDS011;16357;52.188;7.838;2023-02-28T05:48:53;4.88;;;3.00;;
29370;SDS011;16357;52.188;7.838;2023-02-28T05:51:19;4.88;;;2.95;;
29370;SDS011;16357;52.188;7.838;2023-02-28T05:53:46;8.75;;;4.82;;
29370;SDS011;16357;52.188;7.838;2023-02-28T05:56:14;9.27;;;5.05;;
29370;SDS011;16357;52.188;7.838;2023-02-28T05:58:40;8.18;;;4.40;;
29370;SDS011;16357;52.188;7.838;2023-02-28T06:01:24;4.93;;;3.58;;
29370;SDS011;16357;52.188;7.838;2023-02-28T06:04:02;5.95;;;3.42;;
29370;SDS011;16357;52.188;7.838;2023-02-28T06:06:30;3.58;;;2.67;;
29370;SDS011;16357;52.188;7.838;2023-02-28T06:08:56;4.93;;;2.90;;
29370;SDS011;16357;52.188;7.838;2023-02-28T06:11:23;6.13;;;3.00;;
29370;SDS011;16357;52.188;7.838;2023-02-28T06:13:54;4.25;;;2.80;;
29370;SDS011;16357;52.188;7.838;2023-02-28T06:16:26;3.30;;;2.72;;
29370;SDS011;16357;52.188;7.838;2023-02-28T06:18:54;9.15;;;3.00;;
29370;SDS011;16357;52.188;7.838;2023-02-28T06:21:22;7.20;;;3.25;;
29370;SDS011;16357;52.188;7.838;2023-02-28T06:23:49;5.38;;;3.50;;
29370;SDS011;16357;52.188;7.838;2023-02-28T06:26:16;5.40;;;3.10;;
29370;SDS011;16357;52.188;7.838;2023-02-28T06:28:43;4.22;;;2.95;;
29370;SDS011;16357;52.188;7.838;2023-02-28T06:31:10;4.63;;;2.97;;
29370;SDS011;16357;52.188;7.838;2023-02-28T06:33:38;4.40;;;2.42;;
29370;SDS011;16357;52.188;7.838;2023-02-28T06:36:05;6.53;;;2.90;;
29370;SDS011;16357;52.188;7.838;2023-02-28T06:38:33;6.18;;;2.85;;
29370;SDS011;16357;52.188;7.838;2023-02-28T06:41:00;8.75;;;3.10;;
29370;SDS011;16357;52.188;7.838;2023-02-28T06:43:27;5.20;;;3.58;;
29370;SDS011;16357;52.188;7.838;2023-02-28T06:45:57;7.32;;;4.05;;
29370;SDS011;16357;52.188;7.838;2023-02-28T06:48:25;6.80;;;3.65;;
29370;SDS011;16357;52.188;7.838;2023-02-28T06:51:00;6.88;;;4.88;;
29370;SDS011;16357;52.188;7.838;2023-02-28T06:53:31;6.93;;;4.15;;
29370;SDS011;16357;52.188;7.838;2023-02-28T06:55:58;8.88;;;4.82;;
29370;SDS011;16357;52.188;7.838;2023-02-28T06:58:25;9.18;;;4.97;;
29370;SDS011;16357;52.188;7.838;2023-02-28T07:00:51;7.05;;;4.60;;
29370;SDS011;16357;52.188;7.838;2023-02-28T07:03:18;8.23;;;5.00;;
29370;SDS011;16357;52.188;7.838;2023-02-28T07:05:45;8.50;;;5.80;;
29370;SDS011;16357;52.188;7.838;2023-02-28T07:08:12;10.38;;;5.57;;
29370;SDS011;16357;52.188;7.838;2023-02-28T07:10:38;8.00;;;4.50;;
29370;SDS011;16357;52.188;7.838;2023-02-28T07:13:06;7.10;;;4.18;;
29370;SDS011;16357;52.188;7.838;2023-02-28T07:15:33;11.15;;;4.90;;
29370;SDS011;16357;52.188;7.838;2023-02-28T07:18:04;9.25;;;4.57;;
29370;SDS011;16357;52.188;7.838;2023-02-28T07:20:30;8.30;;;4.43;;
29370;SDS011;16357;52.188;7.838;2023-02-28T07:22:57;9.75;;;5.13;;
29370;SDS011;16357;52.188;7.838;2023-02-28T07:25:24;7.07;;;4.40;;
29370;SDS011;16357;52.188;7.838;2023-02-28T07:27:53;9.50;;;4.57;;
29370;SDS011;16357;52.188;7.838;2023-02-28T07:30:20;12.27;;;4.43;;
29370;SDS011;16357;52.188;7.838;2023-02-28T07:32:46;11.30;;;4.38;;
29370;SDS011;16357;52.188;7.838;2023-02-28T07:35:13;16.80;;;5.38;;
29370;SDS011;16357;52.188;7.838;2023-02-28T07:37:41;16.33;;;4.57;;
29370;SDS011;16357;52.188;7.838;2023-02-28T07:40:09;18.23;;;5.22;;
29370;SDS011;16357;52.188;7.838;2023-02-28T07:42:40;11.48;;;4.80;;
29370;SDS011;16357;52.188;7.838;2023-02-28T07:45:08;9.63;;;4.25;;
29370;SDS011;16357;52.188;7.838;2023-02-28T07:47:38;7.80;;;4.03;;
29370;SDS011;16357;52.188;7.838;2023-02-28T07:50:05;9.75;;;4.47;;
29370;SDS011;16357;52.188;7.838;2023-02-28T07:52:33;7.00;;;4.40;;
29370;SDS011;16357;52.188;7.838;2023-02-28T07:54:59;8.02;;;4.75;;
29370;SDS011;16357;52.188;7.838;2023-02-28T07:57:26;8.43;;;4.88;;
29370;SDS011;16357;52.188;7.838;2023-02-28T07:59:52;8.35;;;4.90;;
29370;SDS011;16357;52.188;7.838;2023-02-28T08:02:19;7.68;;;4.50;;
29370;SDS011;16357;52.188;7.838;2023-02-28T08:04:45;9.85;;;5.40;;
29370;SDS011;16357;52.188;7.838;2023-02-28T08:07:12;11.65;;;5.35;;
29370;SDS011;16357;52.188;7.838;2023-02-28T08:09:39;10.63;;;5.32;;
29370;SDS011;16357;52.188;7.838;2023-02-28T08:12:07;7.00;;;4.75;;
29370;SDS011;16357;52.188;7.838;2023-02-28T08:14:34;9.52;;;4.78;;
29370;SDS011;16357;52.188;7.838;2023-02-28T08:17:01;8.70;;;4.25;;
29370;SDS011;16357;52.188;7.838;2023-02-28T08:19:28;6.38;;;4.28;;
29370;SDS011;16357;52.188;7.838;2023-02-28T08:21:54;5.80;;;3.90;;
29370;SDS011;16357;52.188;7.838;2023-02-28T08:24:21;6.22;;;4.00;;
29370;SDS011;16357;52.188;7.838;2023-02-28T08:26:49;8.90;;;3.95;;
29370;SDS011;16357;52.188;7.838;2023-02-28T08:29:16;6.68;;;3.95;;
29370;SDS011;16357;52.188;7.838;2023-02-28T08:31:42;6.00;;;3.58;;
29370;SDS011;16357;52.188;7.838;2023-02-28T08:34:10;5.22;;;3.25;;
29370;SDS011;16357;52.188;7.838;2023-02-28T08:36:38;4.88;;;3.50;;
29370;SDS011;16357;52.188;7.838;2023-02-28T08:39:06;5.50;;;3.15;;
29370;SDS011;16357;52.188;7.838;2023-02-28T08:41:33;4.70;;;2.78;;
29370;SDS011;16357;52.188;7.838;2023-02-28T08:43:59;5.95;;;3.60;;
29370;SDS011;16357;52.188;7.838;2023-02-28T08:46:26;7.68;;;4.20;;
29370;SDS011;16357;52.188;7.838;2023-02-28T08:48:53;5.97;;;3.33;;
29370;SDS011;16357;52.188;7.838;2023-02-28T08:51:21;6.00;;;3.35;;
29370;SDS011;16357;52.188;7.838;2023-02-28T08:53:53;6.85;;;2.78;;
29370;SDS011;16357;52.188;7.838;2023-02-28T08:56:27;4.85;;;3.30;;
29370;SDS011;16357;52.188;7.838;2023-02-28T08:58:55;3.90;;;2.88;;
29370;SDS011;16357;52.188;7.838;2023-02-28T09:01:23;4.32;;;2.70;;
29370;SDS011;16357;52.188;7.838;2023-02-28T09:03:53;4.53;;;2.97;;
29370;SDS011;16357;52.188;7.838;2023-02-28T09:06:26;3.67;;;2.80;;
29370;SDS011;16357;52.188;7.838;2023-02-28T09:08:55;4.63;;;3.00;;
29370;SDS011;16357;52.188;7.838;2023-02-28T09:11:24;5.85;;;2.67;;
29370;SDS011;16357;52.188;7.838;2023-02-28T09:13:51;5.72;;;3.53;;
29370;SDS011;16357;52.188;7.838;2023-02-28T09:16:17;4.38;;;2.65;;
29370;SDS011;16357;52.188;7.838;2023-02-28T09:18:45;6.00;;;2.97;;
29370;SDS011;16357;52.188;7.838;2023-02-28T09:21:12;6.70;;;3.38;;
29370;SDS011;16357;52.188;7.838;2023-02-28T09:23:41;5.88;;;2.95;;
29370;SDS011;16357;52.188;7.838;2023-02-28T09:26:13;4.97;;;2.72;;
29370;SDS011;16357;52.188;7.838;2023-02-28T09:33:41;3.83;;;2.42;;
29370;SDS011;16357;52.188;7.838;2023-02-28T09:36:08;4.20;;;2.47;;
29370;SDS011;16357;52.188;7.838;2023-02-28T09:38:35;5.82;;;2.95;;
29370;SDS011;16357;52.188;7.838;2023-02-28T09:41:03;4.47;;;2.60;;
29370;SDS011;16357;52.188;7.838;2023-02-28T09:43:43;4.35;;;3.10;;
29370;SDS011;16357;52.188;7.838;2023-02-28T09:46:23;5.20;;;3.17;;
29370;SDS011;16357;52.188;7.838;2023-02-28T09:48:59;6.40;;;3.10;;
29370;SDS011;16357;52.188;7.838;2023-02-28T09:51:30;6.05;;;3.00;;
29370;SDS011;16357;52.188;7.838;2023-02-28T09:54:03;4.00;;;2.63;;
29370;SDS011;16357;52.188;7.838;2023-02-28T09:56:34;4.82;;;2.85;;
29370;SDS011;16357;52.188;7.838;2023-02-28T10:04:50;4.70;;;2.60;;
29370;SDS011;16357;52.188;7.838;2023-02-28T10:07:23;3.38;;;2.30;;
29370;SDS011;16357;52.188;7.838;2023-02-28T10:10:01;3.58;;;2.20;;
29370;SDS011;16357;52.188;7.838;2023-02-28T10:12:31;2.13;;;1.77;;
29370;SDS011;16357;52.188;7.838;2023-02-28T10:14:59;2.55;;;1.70;;
29370;SDS011;16357;52.188;7.838;2023-02-28T10:17:32;2.90;;;1.60;;
29370;SDS011;16357;52.188;7.838;2023-02-28T10:20:21;3.08;;;1.70;;
29370;SDS011;16357;52.188;7.838;2023-02-28T10:23:01;3.43;;;1.87;;
29370;SDS011;16357;52.188;7.838;2023-02-28T10:25:39;3.42;;;1.83;;
29370;SDS011;16357;52.188;7.838;2023-02-28T10:30:39;3.20;;;1.98;;
29370;SDS011;16357;52.188;7.838;2023-02-28T10:33:21;2.08;;;1.40;;
29370;SDS011;16357;52.188;7.838;2023-02-28T10:35:51;3.40;;;1.85;;
29370;SDS011;16357;52.188;7.838;2023-02-28T10:38:20;4.57;;;2.45;;
29370;SDS011;16357;52.188;7.838;2023-02-28T10:40:50;6.88;;;1.60;;
29370;SDS011;16357;52.188;7.838;2023-02-28T10:43:18;2.53;;;1.48;;
29370;SDS011;16357;52.188;7.838;2023-02-28T10:46:03;2.67;;;1.60;;
29370;SDS011;16357;52.188;7.838;2023-02-28T10:51:13;2.35;;;1.40;;
29370;SDS011;16357;52.188;7.838;2023-02-28T10:53:51;2.75;;;1.48;;
29370;SDS011;16357;52.188;7.838;2023-02-28T10:56:27;2.63;;;1.90;;
29370;SDS011;16357;52.188;7.838;2023-02-28T10:59:08;4.00;;;1.70;;
29370;SDS011;16357;52.188;7.838;2023-02-28T11:01:52;2.17;;;1.48;;
29370;SDS011;16357;52.188;7.838;2023-02-28T11:06:58;2.08;;;1.60;;
29370;SDS011;16357;52.188;7.838;2023-02-28T11:09:28;3.08;;;1.63;;
29370;SDS011;16357;52.188;7.838;2023-02-28T11:11:59;2.78;;;1.90;;
29370;SDS011;16357;52.188;7.838;2023-02-28T11:14:28;2.78;;;1.75;;
29370;SDS011;16357;52.188;7.838;2023-02-28T11:16:59;5.30;;;2.10;;
29370;SDS011;16357;52.188;7.838;2023-02-28T11:19:44;4.47;;;1.55;;
29370;SDS011;16357;52.188;7.838;2023-02-28T11:22:16;4.18;;;2.20;;
29370;SDS011;16357;52.188;7.838;2023-02-28T11:24:47;3.85;;;1.83;;
29370;SDS011;16357;52.188;7.838;2023-02-28T11:29:57;3.65;;;1.95;;
29370;SDS011;16357;52.188;7.838;2023-02-28T11:32:28;2.83;;;1.83;;
29370;SDS011;16357;52.188;7.838;2023-02-28T11:35:00;4.10;;;1.95;;
29370;SDS011;16357;52.188;7.838;2023-02-28T11:37:37;3.00;;;1.80;;
29370;SDS011;16357;52.188;7.838;2023-02-28T11:40:05;2.55;;;1.50;;
29370;SDS011;16357;52.188;7.838;2023-02-28T11:42:50;2.33;;;1.60;;
29370;SDS011;16357;52.188;7.838;2023-02-28T11:45:43;2.85;;;1.60;;
29370;SDS011;16357;52.188;7.838;2023-02-28T11:48:20;2.88;;;1.80;;
29370;SDS011;16357;52.188;7.838;2023-02-28T11:51:07;2.63;;;1.40;;
29370;SDS011;16357;52.188;7.838;2023-02-28T11:56:14;3.33;;;1.50;;
29370;SDS011;16357;52.188;7.838;2023-02-28T12:04:34;2.90;;;1.38;;
29370;SDS011;16357;52.188;7.838;2023-02-28T12:09:46;2.30;;;1.67;;
29370;SDS011;16357;52.188;7.838;2023-02-28T12:15:17;2.20;;;1.50;;
29370;SDS011;16357;52.188;7.838;2023-02-28T12:18:34;2.65;;;1.70;;
29370;SDS011;16357;52.188;7.838;2023-02-28T12:26:38;2.08;;;1.40;;
29370;SDS011;16357;52.188;7.838;2023-02-28T12:29:22;2.45;;;1.50;;
29370;SDS011;16357;52.188;7.838;2023-02-28T12:34:41;2.60;;;2.00;;
29370;SDS011;16357;52.188;7.838;2023-02-28T12:37:22;2.15;;;1.50;;
29370;SDS011;16357;52.188;7.838;2023-02-28T12:39:58;2.33;;;1.80;;
29370;SDS011;16357;52.188;7.838;2023-02-28T12:42:32;2.97;;;1.65;;
29370;SDS011;16357;52.188;7.838;2023-02-28T12:47:38;2.38;;;1.73;;
29370;SDS011;16357;52.188;7.838;2023-02-28T12:50:10;2.50;;;2.10;;
29370;SDS011;16357;52.188;7.838;2023-02-28T12:52:43;2.85;;;1.98;;
29370;SDS011;16357;52.188;7.838;2023-02-28T12:58:19;3.72;;;2.03;;
29370;SDS011;16357;52.188;7.838;2023-02-28T13:01:02;3.72;;;2.08;;
29370;SDS011;16357;52.188;7.838;2023-02-28T13:09:03;3.03;;;2.13;;
29370;SDS011;16357;52.188;7.838;2023-02-28T13:11:45;3.33;;;1.98;;
29370;SDS011;16357;52.188;7.838;2023-02-28T13:19:23;3.20;;;2.10;;
29370;SDS011;16357;52.188;7.838;2023-02-28T13:21:52;2.90;;;1.80;;
29370;SDS011;16357;52.188;7.838;2023-02-28T13:25:05;3.97;;;1.90;;
29370;SDS011;16357;52.188;7.838;2023-02-28T13:27:17;3.33;;;2.00;;
29370;SDS011;16357;52.188;7.838;2023-02-28T13:29:52;2.75;;;1.90;;
29370;SDS011;16357;52.188;7.838;2023-02-28T13:32:20;2.42;;;1.90;;
29370;SDS011;16357;52.188;7.838;2023-02-28T13:42:33;4.13;;;2.00;;
29370;SDS011;16357;52.188;7.838;2023-02-28T13:47:42;3.55;;;2.17;;
29370;SDS011;16357;52.188;7.838;2023-02-28T13:55:46;2.97;;;1.77;;
29370;SDS011;16357;52.188;7.838;2023-02-28T14:07:18;2.78;;;2.10;;
29370;SDS011;16357;52.188;7.838;2023-02-28T14:09:55;4.22;;;2.60;;
29370;SDS011;16357;52.188;7.838;2023-02-28T14:17:51;6.28;;;3.13;;
29370;SDS011;16357;52.188;7.838;2023-02-28T14:20:22;3.05;;;2.33;;
29370;SDS011;16357;52.188;7.838;2023-02-28T14:22:55;2.20;;;2.00;;
29370;SDS011;16357;52.188;7.838;2023-02-28T14:31:28;4.03;;;2.50;;
29370;SDS011;16357;52.188;7.838;2023-02-28T14:36:36;4.15;;;2.38;;
29370;SDS011;16357;52.188;7.838;2023-02-28T14:41:38;4.25;;;2.42;;
29370;SDS011;16357;52.188;7.838;2023-02-28T14:46:40;3.00;;;2.40;;
29370;SDS011;16357;52.188;7.838;2023-02-28T14:49:27;3.72;;;2.38;;
29370;SDS011;16357;52.188;7.838;2023-02-28T14:52:21;5.30;;;2.10;;
29370;SDS011;16357;52.188;7.838;2023-02-28T14:54:52;3.22;;;2.00;;
29370;SDS011;16357;52.188;7.838;2023-02-28T14:59:57;3.65;;;1.95;;
29370;SDS011;16357;52.188;7.838;2023-02-28T15:02:37;3.30;;;2.13;;
29370;SDS011;16357;52.188;7.838;2023-02-28T15:07:46;4.07;;;1.88;;
29370;SDS011;16357;52.188;7.838;2023-02-28T15:10:16;3.58;;;2.10;;
29370;SDS011;16357;52.188;7.838;2023-02-28T15:12:45;2.50;;;1.95;;
29370;SDS011;16357;52.188;7.838;2023-02-28T15:15:17;3.63;;;1.90;;
29370;SDS011;16357;52.188;7.838;2023-02-28T15:17:45;3.30;;;2.20;;
29370;SDS011;16357;52.188;7.838;2023-02-28T15:20:15;4.00;;;2.10;;
29370;SDS011;16357;52.188;7.838;2023-02-28T15:22:42;5.10;;;2.35;;
29370;SDS011;16357;52.188;7.838;2023-02-28T15:25:13;4.63;;;2.30;;
29370;SDS011;16357;52.188;7.838;2023-02-28T15:27:48;3.40;;;2.20;;
29370;SDS011;16357;52.188;7.838;2023-02-28T15:30:21;3.45;;;2.20;;
29370;SDS011;16357;52.188;7.838;2023-02-28T15:33:37;4.15;;;2.30;;
29370;SDS011;16357;52.188;7.838;2023-02-28T15:35:46;4.30;;;2.78;;
29370;SDS011;16357;52.188;7.838;2023-02-28T15:41:04;3.20;;;2.40;;
29370;SDS011;16357;52.188;7.838;2023-02-28T15:43:35;4.38;;;2.45;;
29370;SDS011;16357;52.188;7.838;2023-02-28T15:46:04;4.88;;;3.08;;
29370;SDS011;16357;52.188;7.838;2023-02-28T15:48:37;3.72;;;2.75;;
29370;SDS011;16357;52.188;7.838;2023-02-28T15:51:29;3.90;;;2.53;;
29370;SDS011;16357;52.188;7.838;2023-02-28T15:54:01;4.88;;;2.58;;
29370;SDS011;16357;52.188;7.838;2023-02-28T15:56:32;3.78;;;2.42;;
29370;SDS011;16357;52.188;7.838;2023-02-28T15:59:06;3.67;;;2.53;;
29370;SDS011;16357;52.188;7.838;2023-02-28T16:01:38;3.42;;;2.35;;
29370;SDS011;16357;52.188;7.838;2023-02-28T16:04:07;3.97;;;2.67;;
29370;SDS011;16357;52.188;7.838;2023-02-28T16:06:41;4.80;;;3.33;;
29370;SDS011;16357;52.188;7.838;2023-02-28T16:09:23;4.07;;;3.08;;
29370;SDS011;16357;52.188;7.838;2023-02-28T16:11:50;4.45;;;3.25;;
29370;SDS011;16357;52.188;7.838;2023-02-28T16:14:21;5.20;;;2.80;;
29370;SDS011;16357;52.188;7.838;2023-02-28T16:16:50;4.53;;;2.72;;
29370;SDS011;16357;52.188;7.838;2023-02-28T16:19:19;3.88;;;3.00;;
29370;SDS011;16357;52.188;7.838;2023-02-28T16:21:46;5.55;;;3.47;;
29370;SDS011;16357;52.188;7.838;2023-02-28T16:24:13;5.00;;;3.00;;
29370;SDS011;16357;52.188;7.838;2023-02-28T16:26:40;5.15;;;2.78;;
29370;SDS011;16357;52.188;7.838;2023-02-28T16:29:08;6.47;;;3.08;;
29370;SDS011;16357;52.188;7.838;2023-02-28T16:31:39;5.43;;;2.85;;
29370;SDS011;16357;52.188;7.838;2023-02-28T16:34:05;5.93;;;3.90;;
29370;SDS011;16357;52.188;7.838;2023-02-28T16:36:32;4.30;;;3.55;;
29370;SDS011;16357;52.188;7.838;2023-02-28T16:38:59;5.78;;;3.78;;
29370;SDS011;16357;52.188;7.838;2023-02-28T16:41:25;6.15;;;3.15;;
29370;SDS011;16357;52.188;7.838;2023-02-28T16:43:55;6.95;;;3.78;;
29370;SDS011;16357;52.188;7.838;2023-02-28T16:46:35;5.38;;;3.60;;
29370;SDS011;16357;52.188;7.838;2023-02-28T16:49:02;4.55;;;3.10;;
29370;SDS011;16357;52.188;7.838;2023-02-28T16:51:28;6.95;;;3.75;;
29370;SDS011;16357;52.188;7.838;2023-02-28T16:53:57;4.47;;;3.28;;
29370;SDS011;16357;52.188;7.838;2023-02-28T16:56:23;4.55;;;3.05;;
29370;SDS011;16357;52.188;7.838;2023-02-28T16:58:51;3.35;;;2.67;;
29370;SDS011;16357;52.188;7.838;2023-02-28T17:01:25;4.78;;;2.88;;
29370;SDS011;16357;52.188;7.838;2023-02-28T17:03:54;5.55;;;2.90;;
29370;SDS011;16357;52.188;7.838;2023-02-28T17:06:22;6.43;;;2.78;;
29370;SDS011;16357;52.188;7.838;2023-02-28T17:08:51;5.55;;;2.80;;
29370;SDS011;16357;52.188;7.838;2023-02-28T17:11:18;4.72;;;2.88;;
29370;SDS011;16357;52.188;7.838;2023-02-28T17:13:45;4.07;;;2.60;;
29370;SDS011;16357;52.188;7.838;2023-02-28T17:16:29;4.15;;;3.00;;
29370;SDS011;16357;52.188;7.838;2023-02-28T17:18:59;4.80;;;3.00;;
29370;SDS011;16357;52.188;7.838;2023-02-28T17:21:28;3.53;;;2.63;;
29370;SDS011;16357;52.188;7.838;2023-02-28T17:23:54;5.97;;;3.50;;